sensor_id;sensor_type;location;lat;lon;timestamp;temperature;humidity
25983;DHT22;13773;48.868;10.730;2024-02-28T00:00:25;5.20;99.90
25983;DHT22;13773;48.868;10.730;2024-02-28T00:02:51;5.10;99.90
25983;DHT22;13773;48.868;10.730;2024-02-28T00:05:17;5.10;99.90
25983;DHT22;13773;48.868;10.730;2024-02-28T00:07:42;5.00;99.90
25983;DHT22;13773;48.868;10.730;2024-02-28T00:10:08;5.10;99.90
25983;DHT22;13773;48.868;10.730;2024-02-28T00:12:34;5.00;99.90
25983;DHT22;13773;48.868;10.730;2024-02-28T00:15:00;5.00;99.90
25983;DHT22;13773;48.868;10.730;2024-02-28T00:17:26;5.00;99.90
25983;DHT22;13773;48.868;10.730;2024-02-28T00:19:51;5.00;99.90
25983;DHT22;13773;48.868;10.730;2024-02-28T00:22:17;4.90;99.90
25983;DHT22;13773;48.868;10.730;2024-02-28T00:24:43;4.90;99.90
25983;DHT22;13773;48.868;10.730;2024-02-28T00:27:08;4.90;99.90
25983;DHT22;13773;48.868;10.730;2024-02-28T00:29:34;4.90;99.90
25983;DHT22;13773;48.868;10.730;2024-02-28T00:32:00;4.90;99.90
25983;DHT22;13773;48.868;10.730;2024-02-28T00:34:25;4.90;99.90
25983;DHT22;13773;48.868;10.730;2024-02-28T00:36:51;4.90;99.90
25983;DHT22;13773;48.868;10.730;2024-02-28T00:39:17;4.90;99.90
25983;DHT22;13773;48.868;10.730;2024-02-28T00:41:43;4.90;99.90
25983;DHT22;13773;48.868;10.730;2024-02-28T00:44:08;4.90;99.90
25983;DHT22;13773;48.868;10.730;2024-02-28T00:46:34;4.90;99.90
25983;DHT22;13773;48.868;10.730;2024-02-28T00:49:00;4.90;99.90
25983;DHT22;13773;48.868;10.730;2024-02-28T00:51:26;4.90;99.90
25983;DHT22;13773;48.868;10.730;2024-02-28T00:53:51;4.90;99.90
25983;DHT22;13773;48.868;10.730;2024-02-28T00:56:17;4.90;99.90
25983;DHT22;13773;48.868;10.730;2024-02-28T00:58:44;4.90;99.90
25983;DHT22;13773;48.868;10.730;2024-02-28T01:01:10;4.90;99.90
25983;DHT22;13773;48.868;10.730;2024-02-28T01:03:35;4.90;99.90
25983;DHT22;13773;48.868;10.730;2024-02-28T01:06:01;4.90;99.90
25983;DHT22;13773;48.868;10.730;2024-02-28T01:08:29;4.90;99.90
25983;DHT22;13773;48.868;10.730;2024-02-28T01:10:54;4.80;99.90
25983;DHT22;13773;48.868;10.730;2024-02-28T01:13:20;4.90;99.90
25983;DHT22;13773;48.868;10.730;2024-02-28T01:15:46;4.80;99.90
25983;DHT22;13773;48.868;10.730;2024-02-28T01:18:12;4.80;99.90
25983;DHT22;13773;48.868;10.730;2024-02-28T01:20:37;4.70;99.90
25983;DHT22;13773;48.868;10.730;2024-02-28T01:23:03;4.80;99.90
25983;DHT22;13773;48.868;10.730;2024-02-28T01:25:29;4.70;99.90
25983;DHT22;13773;48.868;10.730;2024-02-28T01:27:56;5.10;99.90
25983;DHT22;13773;48.868;10.730;2024-02-28T01:30:25;4.80;99.90
25983;DHT22;13773;48.868;10.730;2024-02-28T01:32:51;4.60;99.90
25983;DHT22;13773;48.868;10.730;2024-02-28T01:35:16;4.70;99.90
25983;DHT22;13773;48.868;10.730;2024-02-28T01:37:42;4.60;99.90
25983;DHT22;13773;48.868;10.730;2024-02-28T01:40:08;4.60;99.90
25983;DHT22;13773;48.868;10.730;2024-02-28T01:42:34;4.60;99.90
25983;DHT22;13773;48.868;10.730;2024-02-28T01:45:00;4.60;99.90
25983;DHT22;13773;48.868;10.730;2024-02-28T01:47:26;4.60;99.90
25983;DHT22;13773;48.868;10.730;2024-02-28T01:49:52;4.60;99.90
25983;DHT22;13773;48.868;10.730;2024-02-28T01:52:19;4.60;99.90
25983;DHT22;13773;48.868;10.730;2024-02-28T01:54:46;4.50;99.90
25983;DHT22;13773;48.868;10.730;2024-02-28T01:57:12;4.60;99.90
25983;DHT22;13773;48.868;10.730;2024-02-28T01:59:39;4.50;99.90
25983;DHT22;13773;48.868;10.730;2024-02-28T02:02:05;6.30;99.90
25983;DHT22;13773;48.868;10.730;2024-02-28T02:04:31;4.50;99.90
25983;DHT22;13773;48.868;10.730;2024-02-28T02:06:57;4.50;99.90
25983;DHT22;13773;48.868;10.730;2024-02-28T02:09:25;4.50;99.90
25983;DHT22;13773;48.868;10.730;2024-02-28T02:11:51;4.50;99.90
25983;DHT22;13773;48.868;10.730;2024-02-28T02:14:17;4.50;99.90
25983;DHT22;13773;48.868;10.730;2024-02-28T02:16:43;4.50;99.90
25983;DHT22;13773;48.868;10.730;2024-02-28T02:19:09;4.50;99.90
25983;DHT22;13773;48.868;10.730;2024-02-28T02:21:49;4.50;99.90
25983;DHT22;13773;48.868;10.730;2024-02-28T02:24:16;4.40;99.90
25983;DHT22;13773;48.868;10.730;2024-02-28T02:26:42;4.40;99.90
25983;DHT22;13773;48.868;10.730;2024-02-28T02:29:10;4.40;99.90
25983;DHT22;13773;48.868;10.730;2024-02-28T02:31:35;4.40;99.90
25983;DHT22;13773;48.868;10.730;2024-02-28T02:34:01;4.40;99.90
25983;DHT22;13773;48.868;10.730;2024-02-28T02:36:27;4.40;99.90
25983;DHT22;13773;48.868;10.730;2024-02-28T02:38:52;4.40;99.90
25983;DHT22;13773;48.868;10.730;2024-02-28T02:41:18;4.50;99.90
25983;DHT22;13773;48.868;10.730;2024-02-28T02:43:43;4.50;99.90
25983;DHT22;13773;48.868;10.730;2024-02-28T02:46:09;4.50;99.90
25983;DHT22;13773;48.868;10.730;2024-02-28T02:48:35;4.50;99.90
25983;DHT22;13773;48.868;10.730;2024-02-28T02:51:01;4.60;99.90
25983;DHT22;13773;48.868;10.730;2024-02-28T02:53:26;4.50;99.90
25983;DHT22;13773;48.868;10.730;2024-02-28T02:55:52;4.50;99.90
25983;DHT22;13773;48.868;10.730;2024-02-28T02:58:19;4.40;99.90
25983;DHT22;13773;48.868;10.730;2024-02-28T03:00:45;4.40;99.90
25983;DHT22;13773;48.868;10.730;2024-02-28T03:03:10;4.30;99.90
25983;DHT22;13773;48.868;10.730;2024-02-28T03:05:36;4.40;99.90
25983;DHT22;13773;48.868;10.730;2024-02-28T03:08:02;4.40;99.90
25983;DHT22;13773;48.868;10.730;2024-02-28T03:10:27;4.40;99.90
25983;DHT22;13773;48.868;10.730;2024-02-28T03:12:54;4.40;99.90
25983;DHT22;13773;48.868;10.730;2024-02-28T03:15:20;4.30;99.90
25983;DHT22;13773;48.868;10.730;2024-02-28T03:17:46;4.40;99.90
25983;DHT22;13773;48.868;10.730;2024-02-28T03:20:11;4.40;99.90
25983;DHT22;13773;48.868;10.730;2024-02-28T03:22:39;4.40;99.90
25983;DHT22;13773;48.868;10.730;2024-02-28T03:25:06;4.40;99.90
25983;DHT22;13773;48.868;10.730;2024-02-28T03:27:32;4.40;99.90
25983;DHT22;13773;48.868;10.730;2024-02-28T03:29:57;4.30;99.90
25983;DHT22;13773;48.868;10.730;2024-02-28T03:32:23;4.30;99.90
25983;DHT22;13773;48.868;10.730;2024-02-28T03:34:49;4.30;99.90
25983;DHT22;13773;48.868;10.730;2024-02-28T03:37:15;4.20;99.90
25983;DHT22;13773;48.868;10.730;2024-02-28T03:39:40;4.20;99.90
25983;DHT22;13773;48.868;10.730;2024-02-28T03:42:06;4.20;99.90
25983;DHT22;13773;48.868;10.730;2024-02-28T03:44:32;4.20;99.90
25983;DHT22;13773;48.868;10.730;2024-02-28T03:46:57;4.20;99.90
25983;DHT22;13773;48.868;10.730;2024-02-28T03:49:23;4.10;99.90
25983;DHT22;13773;48.868;10.730;2024-02-28T03:51:49;4.10;99.90
25983;DHT22;13773;48.868;10.730;2024-02-28T03:54:15;4.20;99.90
25983;DHT22;13773;48.868;10.730;2024-02-28T03:56:40;4.20;99.90
25983;DHT22;13773;48.868;10.730;2024-02-28T03:59:06;4.10;99.90
25983;DHT22;13773;48.868;10.730;2024-02-28T04:01:32;4.10;99.90
25983;DHT22;13773;48.868;10.730;2024-02-28T04:03:58;4.00;99.90
25983;DHT22;13773;48.868;10.730;2024-02-28T04:06:24;4.10;99.90
25983;DHT22;13773;48.868;10.730;2024-02-28T04:08:50;4.00;99.90
25983;DHT22;13773;48.868;10.730;2024-02-28T04:11:15;4.00;99.90
25983;DHT22;13773;48.868;10.730;2024-02-28T04:13:41;4.00;99.90
25983;DHT22;13773;48.868;10.730;2024-02-28T04:16:08;3.00;99.90
25983;DHT22;13773;48.868;10.730;2024-02-28T04:18:34;4.00;99.90
25983;DHT22;13773;48.868;10.730;2024-02-28T04:20:59;3.90;99.90
25983;DHT22;13773;48.868;10.730;2024-02-28T04:23:25;3.90;99.90
25983;DHT22;13773;48.868;10.730;2024-02-28T04:25:50;3.90;99.90
25983;DHT22;13773;48.868;10.730;2024-02-28T04:28:16;4.00;99.90
25983;DHT22;13773;48.868;10.730;2024-02-28T04:30:42;3.90;99.90
25983;DHT22;13773;48.868;10.730;2024-02-28T04:33:08;3.90;99.90
25983;DHT22;13773;48.868;10.730;2024-02-28T04:35:33;3.80;99.90
25983;DHT22;13773;48.868;10.730;2024-02-28T04:37:59;3.70;99.90
25983;DHT22;13773;48.868;10.730;2024-02-28T04:40:25;3.80;99.90
25983;DHT22;13773;48.868;10.730;2024-02-28T04:42:50;3.80;99.90
25983;DHT22;13773;48.868;10.730;2024-02-28T04:45:16;3.80;99.90
25983;DHT22;13773;48.868;10.730;2024-02-28T04:47:42;3.70;99.90
25983;DHT22;13773;48.868;10.730;2024-02-28T04:50:09;3.70;99.90
25983;DHT22;13773;48.868;10.730;2024-02-28T04:52:34;3.60;99.90
25983;DHT22;13773;48.868;10.730;2024-02-28T04:55:01;3.70;99.90
25983;DHT22;13773;48.868;10.730;2024-02-28T04:57:26;5.40;99.90
25983;DHT22;13773;48.868;10.730;2024-02-28T04:59:52;3.60;99.90
25983;DHT22;13773;48.868;10.730;2024-02-28T05:02:18;3.60;99.90
25983;DHT22;13773;48.868;10.730;2024-02-28T05:04:44;3.60;99.90
25983;DHT22;13773;48.868;10.730;2024-02-28T05:07:10;3.70;99.90
25983;DHT22;13773;48.868;10.730;2024-02-28T05:09:35;3.50;99.90
25983;DHT22;13773;48.868;10.730;2024-02-28T05:12:04;3.50;99.90
25983;DHT22;13773;48.868;10.730;2024-02-28T05:14:30;3.50;99.90
25983;DHT22;13773;48.868;10.730;2024-02-28T05:16:56;3.50;99.90
25983;DHT22;13773;48.868;10.730;2024-02-28T05:19:21;3.50;99.90
25983;DHT22;13773;48.868;10.730;2024-02-28T05:21:47;3.40;99.90
25983;DHT22;13773;48.868;10.730;2024-02-28T05:24:14;3.40;99.90
25983;DHT22;13773;48.868;10.730;2024-02-28T05:26:39;3.40;99.90
25983;DHT22;13773;48.868;10.730;2024-02-28T05:29:06;3.40;99.90
25983;DHT22;13773;48.868;10.730;2024-02-28T05:31:32;3.40;99.90
25983;DHT22;13773;48.868;10.730;2024-02-28T05:33:58;3.40;99.90
25983;DHT22;13773;48.868;10.730;2024-02-28T05:36:26;3.40;99.90
25983;DHT22;13773;48.868;10.730;2024-02-28T05:38:55;3.40;99.90
25983;DHT22;13773;48.868;10.730;2024-02-28T05:41:21;3.40;99.90
25983;DHT22;13773;48.868;10.730;2024-02-28T05:43:48;3.40;99.90
25983;DHT22;13773;48.868;10.730;2024-02-28T05:46:14;3.60;99.90
25983;DHT22;13773;48.868;10.730;2024-02-28T05:48:44;3.50;99.90
25983;DHT22;13773;48.868;10.730;2024-02-28T05:51:11;3.40;99.90
25983;DHT22;13773;48.868;10.730;2024-02-28T05:53:36;3.40;99.90
25983;DHT22;13773;48.868;10.730;2024-02-28T05:56:04;3.50;99.90
25983;DHT22;13773;48.868;10.730;2024-02-28T05:58:29;3.50;99.90
25983;DHT22;13773;48.868;10.730;2024-02-28T06:00:55;3.50;99.90
25983;DHT22;13773;48.868;10.730;2024-02-28T06:03:21;3.60;99.90
25983;DHT22;13773;48.868;10.730;2024-02-28T06:05:47;3.50;99.90
25983;DHT22;13773;48.868;10.730;2024-02-28T06:08:13;3.50;99.90
25983;DHT22;13773;48.868;10.730;2024-02-28T06:10:39;3.50;99.90
25983;DHT22;13773;48.868;10.730;2024-02-28T06:13:07;3.50;99.90
25983;DHT22;13773;48.868;10.730;2024-02-28T06:15:33;3.40;99.90
25983;DHT22;13773;48.868;10.730;2024-02-28T06:17:59;3.50;99.90
25983;DHT22;13773;48.868;10.730;2024-02-28T06:20:28;3.50;99.90
25983;DHT22;13773;48.868;10.730;2024-02-28T06:22:53;3.40;99.90
25983;DHT22;13773;48.868;10.730;2024-02-28T06:25:19;3.50;99.90
25983;DHT22;13773;48.868;10.730;2024-02-28T06:27:47;3.60;99.90
25983;DHT22;13773;48.868;10.730;2024-02-28T06:30:14;3.60;99.90
25983;DHT22;13773;48.868;10.730;2024-02-28T06:32:40;3.60;99.90
25983;DHT22;13773;48.868;10.730;2024-02-28T06:35:07;3.60;99.90
25983;DHT22;13773;48.868;10.730;2024-02-28T06:37:33;3.60;99.90
25983;DHT22;13773;48.868;10.730;2024-02-28T06:39:59;3.70;99.90
25983;DHT22;13773;48.868;10.730;2024-02-28T06:42:25;3.60;99.90
25983;DHT22;13773;48.868;10.730;2024-02-28T06:44:50;3.60;99.90
25983;DHT22;13773;48.868;10.730;2024-02-28T06:47:16;5.10;99.90
25983;DHT22;13773;48.868;10.730;2024-02-28T06:49:43;3.70;99.90
25983;DHT22;13773;48.868;10.730;2024-02-28T06:52:09;3.70;99.90
25983;DHT22;13773;48.868;10.730;2024-02-28T06:54:35;3.90;99.90
25983;DHT22;13773;48.868;10.730;2024-02-28T06:57:00;3.90;99.90
25983;DHT22;13773;48.868;10.730;2024-02-28T06:59:27;3.90;99.90
25983;DHT22;13773;48.868;10.730;2024-02-28T07:01:53;4.00;99.90
25983;DHT22;13773;48.868;10.730;2024-02-28T07:04:19;6.00;99.90
25983;DHT22;13773;48.868;10.730;2024-02-28T07:06:44;3.80;99.90
25983;DHT22;13773;48.868;10.730;2024-02-28T07:09:11;3.90;99.90
25983;DHT22;13773;48.868;10.730;2024-02-28T07:11:38;3.80;99.90
25983;DHT22;13773;48.868;10.730;2024-02-28T07:14:04;3.90;99.90
25983;DHT22;13773;48.868;10.730;2024-02-28T07:16:30;3.90;99.90
25983;DHT22;13773;48.868;10.730;2024-02-28T07:18:59;3.80;99.90
25983;DHT22;13773;48.868;10.730;2024-02-28T07:21:25;3.90;99.90
25983;DHT22;13773;48.868;10.730;2024-02-28T07:23:51;3.90;99.90
25983;DHT22;13773;48.868;10.730;2024-02-28T07:26:17;3.90;99.90
25983;DHT22;13773;48.868;10.730;2024-02-28T07:28:43;3.90;99.90
25983;DHT22;13773;48.868;10.730;2024-02-28T07:31:18;3.90;99.90
25983;DHT22;13773;48.868;10.730;2024-02-28T07:33:45;3.90;99.90
25983;DHT22;13773;48.868;10.730;2024-02-28T07:36:11;3.90;99.90
25983;DHT22;13773;48.868;10.730;2024-02-28T07:38:37;4.10;99.90
25983;DHT22;13773;48.868;10.730;2024-02-28T07:41:03;3.90;99.90
25983;DHT22;13773;48.868;10.730;2024-02-28T07:43:29;5.50;99.90
25983;DHT22;13773;48.868;10.730;2024-02-28T07:45:58;3.90;99.90
25983;DHT22;13773;48.868;10.730;2024-02-28T07:48:24;3.90;99.90
25983;DHT22;13773;48.868;10.730;2024-02-28T07:50:50;4.00;99.90
25983;DHT22;13773;48.868;10.730;2024-02-28T07:53:17;3.90;99.90
25983;DHT22;13773;48.868;10.730;2024-02-28T07:55:43;3.90;99.90
25983;DHT22;13773;48.868;10.730;2024-02-28T07:58:08;4.00;99.90
25983;DHT22;13773;48.868;10.730;2024-02-28T08:00:35;3.90;99.90
25983;DHT22;13773;48.868;10.730;2024-02-28T08:03:01;3.90;99.90
25983;DHT22;13773;48.868;10.730;2024-02-28T08:05:27;3.90;99.90
25983;DHT22;13773;48.868;10.730;2024-02-28T08:07:53;3.90;99.90
25983;DHT22;13773;48.868;10.730;2024-02-28T08:10:18;4.00;99.90
25983;DHT22;13773;48.868;10.730;2024-02-28T08:12:44;4.10;99.90
25983;DHT22;13773;48.868;10.730;2024-02-28T08:15:10;4.10;99.90
25983;DHT22;13773;48.868;10.730;2024-02-28T08:17:36;4.10;99.90
25983;DHT22;13773;48.868;10.730;2024-02-28T08:20:03;4.10;99.90
25983;DHT22;13773;48.868;10.730;2024-02-28T08:22:30;4.20;99.90
25983;DHT22;13773;48.868;10.730;2024-02-28T08:24:56;4.20;99.90
25983;DHT22;13773;48.868;10.730;2024-02-28T08:27:22;4.50;99.90
25983;DHT22;13773;48.868;10.730;2024-02-28T08:29:49;4.60;99.90
25983;DHT22;13773;48.868;10.730;2024-02-28T08:32:15;4.50;99.90
25983;DHT22;13773;48.868;10.730;2024-02-28T08:34:44;4.60;99.90
25983;DHT22;13773;48.868;10.730;2024-02-28T08:37:12;4.50;99.90
25983;DHT22;13773;48.868;10.730;2024-02-28T08:39:37;4.60;99.90
25983;DHT22;13773;48.868;10.730;2024-02-28T08:42:03;4.70;99.90
25983;DHT22;13773;48.868;10.730;2024-02-28T08:44:30;4.70;99.90
25983;DHT22;13773;48.868;10.730;2024-02-28T08:46:56;4.70;99.90
25983;DHT22;13773;48.868;10.730;2024-02-28T08:49:22;4.70;99.90
25983;DHT22;13773;48.868;10.730;2024-02-28T08:51:48;4.80;99.90
25983;DHT22;13773;48.868;10.730;2024-02-28T08:54:13;4.80;99.90
25983;DHT22;13773;48.868;10.730;2024-02-28T08:56:39;4.80;99.90
25983;DHT22;13773;48.868;10.730;2024-02-28T08:59:05;4.90;99.90
25983;DHT22;13773;48.868;10.730;2024-02-28T09:01:30;5.00;99.90
25983;DHT22;13773;48.868;10.730;2024-02-28T09:03:56;5.10;99.90
25983;DHT22;13773;48.868;10.730;2024-02-28T09:06:21;5.20;99.90
25983;DHT22;13773;48.868;10.730;2024-02-28T09:08:47;5.10;99.90
25983;DHT22;13773;48.868;10.730;2024-02-28T09:11:13;4.90;99.90
25983;DHT22;13773;48.868;10.730;2024-02-28T09:13:39;4.90;99.90
25983;DHT22;13773;48.868;10.730;2024-02-28T09:16:04;5.00;99.90
25983;DHT22;13773;48.868;10.730;2024-02-28T09:18:30;5.20;99.90
25983;DHT22;13773;48.868;10.730;2024-02-28T09:20:56;5.30;99.90
25983;DHT22;13773;48.868;10.730;2024-02-28T09:23:21;5.50;99.90
25983;DHT22;13773;48.868;10.730;2024-02-28T09:25:47;5.70;99.90
25983;DHT22;13773;48.868;10.730;2024-02-28T09:28:12;5.70;99.90
25983;DHT22;13773;48.868;10.730;2024-02-28T09:30:44;5.70;99.90
25983;DHT22;13773;48.868;10.730;2024-02-28T09:33:12;5.40;99.90
25983;DHT22;13773;48.868;10.730;2024-02-28T09:35:38;5.40;99.90
25983;DHT22;13773;48.868;10.730;2024-02-28T09:38:04;5.40;99.90
25983;DHT22;13773;48.868;10.730;2024-02-28T09:40:30;5.50;99.90
25983;DHT22;13773;48.868;10.730;2024-02-28T09:43:06;5.40;99.90
25983;DHT22;13773;48.868;10.730;2024-02-28T09:45:36;5.50;99.90
25983;DHT22;13773;48.868;10.730;2024-02-28T09:48:03;5.50;99.90
25983;DHT22;13773;48.868;10.730;2024-02-28T09:50:30;5.40;99.90
25983;DHT22;13773;48.868;10.730;2024-02-28T09:52:56;5.50;99.90
25983;DHT22;13773;48.868;10.730;2024-02-28T09:55:21;5.50;99.90
25983;DHT22;13773;48.868;10.730;2024-02-28T09:57:51;5.40;99.90
25983;DHT22;13773;48.868;10.730;2024-02-28T10:00:19;5.30;99.90
25983;DHT22;13773;48.868;10.730;2024-02-28T10:02:47;5.40;99.90
25983;DHT22;13773;48.868;10.730;2024-02-28T10:05:14;5.50;99.90
25983;DHT22;13773;48.868;10.730;2024-02-28T10:07:41;5.50;99.90
25983;DHT22;13773;48.868;10.730;2024-02-28T10:10:07;5.50;99.90
25983;DHT22;13773;48.868;10.730;2024-02-28T10:12:40;5.50;99.90
25983;DHT22;13773;48.868;10.730;2024-02-28T10:15:06;5.40;99.90
25983;DHT22;13773;48.868;10.730;2024-02-28T10:17:32;5.30;99.90
25983;DHT22;13773;48.868;10.730;2024-02-28T10:19:58;5.30;99.90
25983;DHT22;13773;48.868;10.730;2024-02-28T10:22:25;5.20;99.90
25983;DHT22;13773;48.868;10.730;2024-02-28T10:24:57;5.20;99.90
25983;DHT22;13773;48.868;10.730;2024-02-28T10:27:23;5.40;99.90
25983;DHT22;13773;48.868;10.730;2024-02-28T10:29:49;5.40;99.90
25983;DHT22;13773;48.868;10.730;2024-02-28T10:32:14;5.40;99.90
25983;DHT22;13773;48.868;10.730;2024-02-28T10:34:40;5.50;99.90
25983;DHT22;13773;48.868;10.730;2024-02-28T10:37:06;5.50;99.90
25983;DHT22;13773;48.868;10.730;2024-02-28T10:39:33;5.40;99.90
25983;DHT22;13773;48.868;10.730;2024-02-28T10:42:00;5.40;99.90
25983;DHT22;13773;48.868;10.730;2024-02-28T10:44:27;5.50;99.90
25983;DHT22;13773;48.868;10.730;2024-02-28T10:46:54;5.40;99.90
25983;DHT22;13773;48.868;10.730;2024-02-28T10:49:20;5.40;99.90
25983;DHT22;13773;48.868;10.730;2024-02-28T10:51:49;5.40;99.90
25983;DHT22;13773;48.868;10.730;2024-02-28T10:54:16;5.60;99.90
25983;DHT22;13773;48.868;10.730;2024-02-28T10:56:46;5.60;99.90
25983;DHT22;13773;48.868;10.730;2024-02-28T10:59:12;5.60;99.90
25983;DHT22;13773;48.868;10.730;2024-02-28T11:01:42;5.70;99.90
25983;DHT22;13773;48.868;10.730;2024-02-28T11:04:10;5.70;99.90
25983;DHT22;13773;48.868;10.730;2024-02-28T11:06:48;5.90;99.90
25983;DHT22;13773;48.868;10.730;2024-02-28T11:09:23;5.90;99.90
25983;DHT22;13773;48.868;10.730;2024-02-28T11:11:52;5.90;99.90
25983;DHT22;13773;48.868;10.730;2024-02-28T11:14:18;5.90;99.90
25983;DHT22;13773;48.868;10.730;2024-02-28T11:16:48;6.00;99.90
25983;DHT22;13773;48.868;10.730;2024-02-28T11:19:24;6.10;99.90
25983;DHT22;13773;48.868;10.730;2024-02-28T11:21:57;6.30;99.90
25983;DHT22;13773;48.868;10.730;2024-02-28T11:24:30;6.30;99.90
25983;DHT22;13773;48.868;10.730;2024-02-28T11:26:58;6.40;99.90
25983;DHT22;13773;48.868;10.730;2024-02-28T11:29:26;6.50;99.90
25983;DHT22;13773;48.868;10.730;2024-02-28T11:31:52;6.60;99.90
25983;DHT22;13773;48.868;10.730;2024-02-28T11:34:18;6.60;99.90
25983;DHT22;13773;48.868;10.730;2024-02-28T11:36:47;6.60;99.90
25983;DHT22;13773;48.868;10.730;2024-02-28T11:39:13;6.70;99.90
25983;DHT22;13773;48.868;10.730;2024-02-28T11:41:39;6.80;99.90
25983;DHT22;13773;48.868;10.730;2024-02-28T11:44:05;6.90;99.90
25983;DHT22;13773;48.868;10.730;2024-02-28T11:46:31;6.80;99.90
25983;DHT22;13773;48.868;10.730;2024-02-28T11:48:57;6.60;99.90
25983;DHT22;13773;48.868;10.730;2024-02-28T11:51:23;6.50;99.90
25983;DHT22;13773;48.868;10.730;2024-02-28T11:53:49;6.50;99.90
25983;DHT22;13773;48.868;10.730;2024-02-28T11:56:14;6.50;99.90
25983;DHT22;13773;48.868;10.730;2024-02-28T11:58:52;6.40;99.90
25983;DHT22;13773;48.868;10.730;2024-02-28T12:01:18;6.40;99.90
25983;DHT22;13773;48.868;10.730;2024-02-28T12:03:47;6.40;99.90
25983;DHT22;13773;48.868;10.730;2024-02-28T12:06:13;6.60;99.90
25983;DHT22;13773;48.868;10.730;2024-02-28T12:08:38;6.70;99.90
25983;DHT22;13773;48.868;10.730;2024-02-28T12:11:08;6.80;99.90
25983;DHT22;13773;48.868;10.730;2024-02-28T12:13:36;6.70;99.90
25983;DHT22;13773;48.868;10.730;2024-02-28T12:16:03;6.70;99.90
25983;DHT22;13773;48.868;10.730;2024-02-28T12:18:29;6.70;99.90
25983;DHT22;13773;48.868;10.730;2024-02-28T12:20:55;6.70;99.90
25983;DHT22;13773;48.868;10.730;2024-02-28T12:23:20;6.80;99.90
25983;DHT22;13773;48.868;10.730;2024-02-28T12:25:46;7.00;99.90
25983;DHT22;13773;48.868;10.730;2024-02-28T12:28:12;7.10;99.90
25983;DHT22;13773;48.868;10.730;2024-02-28T12:30:42;7.20;99.90
25983;DHT22;13773;48.868;10.730;2024-02-28T12:33:08;7.00;99.90
25983;DHT22;13773;48.868;10.730;2024-02-28T12:35:34;6.80;99.90
25983;DHT22;13773;48.868;10.730;2024-02-28T12:38:00;6.80;99.90
25983;DHT22;13773;48.868;10.730;2024-02-28T12:40:25;6.60;99.90
25983;DHT22;13773;48.868;10.730;2024-02-28T12:42:51;6.50;99.90
25983;DHT22;13773;48.868;10.730;2024-02-28T12:45:16;6.60;99.90
25983;DHT22;13773;48.868;10.730;2024-02-28T12:47:43;6.50;99.90
25983;DHT22;13773;48.868;10.730;2024-02-28T12:50:09;6.40;99.90
25983;DHT22;13773;48.868;10.730;2024-02-28T12:52:36;6.40;99.90
25983;DHT22;13773;48.868;10.730;2024-02-28T12:55:02;6.30;99.90
25983;DHT22;13773;48.868;10.730;2024-02-28T12:57:28;6.20;99.90
25983;DHT22;13773;48.868;10.730;2024-02-28T12:59:54;6.10;99.90
25983;DHT22;13773;48.868;10.730;2024-02-28T13:02:21;6.10;99.90
25983;DHT22;13773;48.868;10.730;2024-02-28T13:04:47;6.10;99.90
25983;DHT22;13773;48.868;10.730;2024-02-28T13:07:14;6.20;99.90
25983;DHT22;13773;48.868;10.730;2024-02-28T13:09:40;6.10;99.90
25983;DHT22;13773;48.868;10.730;2024-02-28T13:12:06;6.10;99.90
25983;DHT22;13773;48.868;10.730;2024-02-28T13:14:32;6.00;99.90
25983;DHT22;13773;48.868;10.730;2024-02-28T13:16:59;5.90;99.90
25983;DHT22;13773;48.868;10.730;2024-02-28T13:19:25;5.90;99.90
25983;DHT22;13773;48.868;10.730;2024-02-28T13:21:50;5.90;99.90
25983;DHT22;13773;48.868;10.730;2024-02-28T13:24:16;5.90;99.90
25983;DHT22;13773;48.868;10.730;2024-02-28T13:26:42;5.70;99.90
25983;DHT22;13773;48.868;10.730;2024-02-28T13:29:08;5.60;99.90
25983;DHT22;13773;48.868;10.730;2024-02-28T13:31:34;5.90;99.90
25983;DHT22;13773;48.868;10.730;2024-02-28T13:34:00;5.90;99.90
25983;DHT22;13773;48.868;10.730;2024-02-28T13:36:29;6.00;99.90
25983;DHT22;13773;48.868;10.730;2024-02-28T13:38:57;6.10;99.90
25983;DHT22;13773;48.868;10.730;2024-02-28T13:41:23;5.90;99.90
25983;DHT22;13773;48.868;10.730;2024-02-28T13:43:49;5.90;99.90
25983;DHT22;13773;48.868;10.730;2024-02-28T13:46:15;5.80;99.90
25983;DHT22;13773;48.868;10.730;2024-02-28T13:48:40;5.70;99.90
25983;DHT22;13773;48.868;10.730;2024-02-28T13:51:06;7.90;99.90
25983;DHT22;13773;48.868;10.730;2024-02-28T13:53:32;5.80;99.90
25983;DHT22;13773;48.868;10.730;2024-02-28T13:55:57;6.00;99.90
25983;DHT22;13773;48.868;10.730;2024-02-28T13:58:23;6.10;99.90
25983;DHT22;13773;48.868;10.730;2024-02-28T14:00:48;6.20;99.90
25983;DHT22;13773;48.868;10.730;2024-02-28T14:03:14;6.20;99.90
25983;DHT22;13773;48.868;10.730;2024-02-28T14:05:40;5.90;99.90
25983;DHT22;13773;48.868;10.730;2024-02-28T14:08:06;5.90;99.90
25983;DHT22;13773;48.868;10.730;2024-02-28T14:10:37;5.90;99.90
25983;DHT22;13773;48.868;10.730;2024-02-28T14:13:03;5.80;99.90
25983;DHT22;13773;48.868;10.730;2024-02-28T14:15:28;5.70;99.90
25983;DHT22;13773;48.868;10.730;2024-02-28T14:17:54;5.60;99.90
25983;DHT22;13773;48.868;10.730;2024-02-28T14:20:20;5.60;99.90
25983;DHT22;13773;48.868;10.730;2024-02-28T14:22:46;5.70;99.90
25983;DHT22;13773;48.868;10.730;2024-02-28T14:25:12;5.80;99.90
25983;DHT22;13773;48.868;10.730;2024-02-28T14:27:39;5.80;99.90
25983;DHT22;13773;48.868;10.730;2024-02-28T14:30:07;5.80;99.90
25983;DHT22;13773;48.868;10.730;2024-02-28T14:32:37;5.70;99.90
25983;DHT22;13773;48.868;10.730;2024-02-28T14:35:07;5.70;99.90
25983;DHT22;13773;48.868;10.730;2024-02-28T14:37:34;5.80;99.90
25983;DHT22;13773;48.868;10.730;2024-02-28T14:40:00;5.90;99.90
25983;DHT22;13773;48.868;10.730;2024-02-28T14:42:27;5.80;99.90
25983;DHT22;13773;48.868;10.730;2024-02-28T14:44:53;5.70;99.90
25983;DHT22;13773;48.868;10.730;2024-02-28T14:47:22;5.60;99.90
25983;DHT22;13773;48.868;10.730;2024-02-28T14:49:47;5.60;99.90
25983;DHT22;13773;48.868;10.730;2024-02-28T14:52:13;5.50;99.90
25983;DHT22;13773;48.868;10.730;2024-02-28T14:54:40;5.50;99.90
25983;DHT22;13773;48.868;10.730;2024-02-28T14:57:06;5.50;99.90
25983;DHT22;13773;48.868;10.730;2024-02-28T14:59:32;5.40;99.90
25983;DHT22;13773;48.868;10.730;2024-02-28T15:01:59;5.40;99.90
25983;DHT22;13773;48.868;10.730;2024-02-28T15:04:25;5.40;99.90
25983;DHT22;13773;48.868;10.730;2024-02-28T15:06:50;5.50;99.90
25983;DHT22;13773;48.868;10.730;2024-02-28T15:09:20;5.50;99.90
25983;DHT22;13773;48.868;10.730;2024-02-28T15:11:48;5.50;99.90
25983;DHT22;13773;48.868;10.730;2024-02-28T15:14:14;5.60;99.90
25983;DHT22;13773;48.868;10.730;2024-02-28T15:16:40;5.60;99.90
25983;DHT22;13773;48.868;10.730;2024-02-28T15:19:06;5.60;99.90
25983;DHT22;13773;48.868;10.730;2024-02-28T15:21:31;5.60;99.90
25983;DHT22;13773;48.868;10.730;2024-02-28T15:23:57;5.50;99.90